sensor_id;sensor_type;location;lat;lon;timestamp;temperature;humidity
25328;DHT22;13279;51.300;12.394;2023-05-18T00:00:39;9.40;17.30
25328;DHT22;13279;51.300;12.394;2023-05-18T00:03:07;9.40;33.70
25328;DHT22;13279;51.300;12.394;2023-05-18T00:05:35;9.40;78.70
25328;DHT22;13279;51.300;12.394;2023-05-18T00:08:03;9.40;12.00
25328;DHT22;13279;51.300;12.394;2023-05-18T00:10:30;9.40;69.20
25328;DHT22;13279;51.300;12.394;2023-05-18T00:12:57;9.40;99.90
25328;DHT22;13279;51.300;12.394;2023-05-18T00:15:25;9.30;99.90
25328;DHT22;13279;51.300;12.394;2023-05-18T00:17:52;9.30;99.90
25328;DHT22;13279;51.300;12.394;2023-05-18T00:20:21;9.20;99.90
25328;DHT22;13279;51.300;12.394;2023-05-18T00:22:54;9.10;99.90
25328;DHT22;13279;51.300;12.394;2023-05-18T00:25:22;9.10;99.90
25328;DHT22;13279;51.300;12.394;2023-05-18T00:27:49;9.00;99.90
25328;DHT22;13279;51.300;12.394;2023-05-18T00:30:18;9.00;99.90
25328;DHT22;13279;51.300;12.394;2023-05-18T00:32:45;9.00;99.90
25328;DHT22;13279;51.300;12.394;2023-05-18T00:35:13;8.90;99.90
25328;DHT22;13279;51.300;12.394;2023-05-18T00:37:41;8.90;1.00
25328;DHT22;13279;51.300;12.394;2023-05-18T00:40:10;8.80;1.00
25328;DHT22;13279;51.300;12.394;2023-05-18T00:42:38;8.80;1.00
25328;DHT22;13279;51.300;12.394;2023-05-18T00:45:07;8.70;1.00
25328;DHT22;13279;51.300;12.394;2023-05-18T00:47:34;8.70;1.00
25328;DHT22;13279;51.300;12.394;2023-05-18T00:50:02;8.70;1.00
25328;DHT22;13279;51.300;12.394;2023-05-18T00:52:29;8.60;1.00
25328;DHT22;13279;51.300;12.394;2023-05-18T00:54:59;8.50;1.00
25328;DHT22;13279;51.300;12.394;2023-05-18T00:57:27;8.50;1.00
25328;DHT22;13279;51.300;12.394;2023-05-18T00:59:55;8.40;1.00
25328;DHT22;13279;51.300;12.394;2023-05-18T01:02:22;8.40;1.00
25328;DHT22;13279;51.300;12.394;2023-05-18T01:04:49;8.30;1.00
25328;DHT22;13279;51.300;12.394;2023-05-18T01:07:17;8.30;1.00
25328;DHT22;13279;51.300;12.394;2023-05-18T01:09:48;8.30;1.00
25328;DHT22;13279;51.300;12.394;2023-05-18T01:12:19;8.20;1.00
25328;DHT22;13279;51.300;12.394;2023-05-18T01:14:51;8.20;1.00
25328;DHT22;13279;51.300;12.394;2023-05-18T01:17:27;8.10;1.00
25328;DHT22;13279;51.300;12.394;2023-05-18T01:20:26;8.10;1.00
25328;DHT22;13279;51.300;12.394;2023-05-18T01:23:16;8.10;1.00
25328;DHT22;13279;51.300;12.394;2023-05-18T01:26:04;8.00;1.00
25328;DHT22;13279;51.300;12.394;2023-05-18T01:28:34;8.00;1.00
25328;DHT22;13279;51.300;12.394;2023-05-18T01:31:02;8.00;1.00
25328;DHT22;13279;51.300;12.394;2023-05-18T01:33:31;7.90;1.00
25328;DHT22;13279;51.300;12.394;2023-05-18T01:35:59;8.00;1.00
25328;DHT22;13279;51.300;12.394;2023-05-18T01:38:27;7.90;1.00
25328;DHT22;13279;51.300;12.394;2023-05-18T01:41:03;7.90;1.00
25328;DHT22;13279;51.300;12.394;2023-05-18T01:43:36;7.90;1.00
25328;DHT22;13279;51.300;12.394;2023-05-18T01:46:14;7.80;1.00
25328;DHT22;13279;51.300;12.394;2023-05-18T01:48:47;7.80;1.00
25328;DHT22;13279;51.300;12.394;2023-05-18T01:51:19;7.80;1.00
25328;DHT22;13279;51.300;12.394;2023-05-18T01:53:54;7.70;1.00
25328;DHT22;13279;51.300;12.394;2023-05-18T01:56:24;7.60;1.00
25328;DHT22;13279;51.300;12.394;2023-05-18T01:58:53;7.60;1.00
25328;DHT22;13279;51.300;12.394;2023-05-18T02:01:21;7.50;1.00
25328;DHT22;13279;51.300;12.394;2023-05-18T02:03:50;7.50;1.00
25328;DHT22;13279;51.300;12.394;2023-05-18T02:06:17;7.50;1.00
25328;DHT22;13279;51.300;12.394;2023-05-18T02:08:45;7.50;1.00
25328;DHT22;13279;51.300;12.394;2023-05-18T02:11:13;7.40;1.00
25328;DHT22;13279;51.300;12.394;2023-05-18T02:13:40;7.40;1.00
25328;DHT22;13279;51.300;12.394;2023-05-18T02:16:09;7.40;1.00
25328;DHT22;13279;51.300;12.394;2023-05-18T02:18:36;7.30;1.00
25328;DHT22;13279;51.300;12.394;2023-05-18T02:21:05;7.30;1.00
25328;DHT22;13279;51.300;12.394;2023-05-18T02:23:34;7.30;1.00
25328;DHT22;13279;51.300;12.394;2023-05-18T02:26:01;7.30;1.00
25328;DHT22;13279;51.300;12.394;2023-05-18T02:28:28;7.20;1.00
25328;DHT22;13279;51.300;12.394;2023-05-18T02:31:04;7.20;1.00
25328;DHT22;13279;51.300;12.394;2023-05-18T02:33:36;7.20;1.00
25328;DHT22;13279;51.300;12.394;2023-05-18T02:36:07;7.20;1.00
25328;DHT22;13279;51.300;12.394;2023-05-18T02:38:36;7.10;1.00
25328;DHT22;13279;51.300;12.394;2023-05-18T02:41:04;7.10;1.00
25328;DHT22;13279;51.300;12.394;2023-05-18T02:43:32;7.10;1.00
25328;DHT22;13279;51.300;12.394;2023-05-18T02:46:00;7.10;1.00
25328;DHT22;13279;51.300;12.394;2023-05-18T02:48:28;7.10;1.00
25328;DHT22;13279;51.300;12.394;2023-05-18T02:50:57;7.00;1.00
25328;DHT22;13279;51.300;12.394;2023-05-18T02:53:26;7.10;1.00
25328;DHT22;13279;51.300;12.394;2023-05-18T02:56:00;7.00;1.00
25328;DHT22;13279;51.300;12.394;2023-05-18T02:58:50;7.00;1.00
25328;DHT22;13279;51.300;12.394;2023-05-18T03:01:28;7.00;1.00
25328;DHT22;13279;51.300;12.394;2023-05-18T03:03:56;7.00;1.00
25328;DHT22;13279;51.300;12.394;2023-05-18T03:06:26;7.00;1.00
25328;DHT22;13279;51.300;12.394;2023-05-18T03:08:56;7.00;1.00
25328;DHT22;13279;51.300;12.394;2023-05-18T03:11:31;7.00;1.00
25328;DHT22;13279;51.300;12.394;2023-05-18T03:13:59;6.90;1.00
25328;DHT22;13279;51.300;12.394;2023-05-18T03:16:26;6.90;1.00
25328;DHT22;13279;51.300;12.394;2023-05-18T03:18:54;6.90;1.00
25328;DHT22;13279;51.300;12.394;2023-05-18T03:21:29;6.90;1.00
25328;DHT22;13279;51.300;12.394;2023-05-18T03:23:59;6.80;1.00
25328;DHT22;13279;51.300;12.394;2023-05-18T03:26:27;6.80;1.00
25328;DHT22;13279;51.300;12.394;2023-05-18T03:28:56;6.80;1.00
25328;DHT22;13279;51.300;12.394;2023-05-18T03:31:23;6.80;1.00
25328;DHT22;13279;51.300;12.394;2023-05-18T03:33:56;6.70;1.00
25328;DHT22;13279;51.300;12.394;2023-05-18T03:36:23;6.80;1.00
25328;DHT22;13279;51.300;12.394;2023-05-18T03:38:57;6.80;1.00
25328;DHT22;13279;51.300;12.394;2023-05-18T03:41:29;6.80;1.00
25328;DHT22;13279;51.300;12.394;2023-05-18T03:43:57;6.80;1.00
25328;DHT22;13279;51.300;12.394;2023-05-18T03:46:24;6.80;1.00
25328;DHT22;13279;51.300;12.394;2023-05-18T03:48:57;6.80;1.00
25328;DHT22;13279;51.300;12.394;2023-05-18T03:51:36;6.80;1.00
25328;DHT22;13279;51.300;12.394;2023-05-18T03:54:05;6.80;1.00
25328;DHT22;13279;51.300;12.394;2023-05-18T03:56:45;6.80;1.00
25328;DHT22;13279;51.300;12.394;2023-05-18T03:59:14;6.70;1.00
25328;DHT22;13279;51.300;12.394;2023-05-18T04:01:42;6.80;1.00
25328;DHT22;13279;51.300;12.394;2023-05-18T04:04:16;6.80;1.00
25328;DHT22;13279;51.300;12.394;2023-05-18T04:07:01;6.60;1.00
25328;DHT22;13279;51.300;12.394;2023-05-18T04:09:32;6.80;1.00
25328;DHT22;13279;51.300;12.394;2023-05-18T04:12:03;6.70;1.00
25328;DHT22;13279;51.300;12.394;2023-05-18T04:14:35;6.80;1.00
25328;DHT22;13279;51.300;12.394;2023-05-18T04:17:04;6.80;1.00
25328;DHT22;13279;51.300;12.394;2023-05-18T04:19:47;6.80;1.00
25328;DHT22;13279;51.300;12.394;2023-05-18T04:25:31;6.80;1.00
25328;DHT22;13279;51.300;12.394;2023-05-18T04:28:00;6.70;1.00
25328;DHT22;13279;51.300;12.394;2023-05-18T04:30:29;6.90;1.00
25328;DHT22;13279;51.300;12.394;2023-05-18T04:33:00;7.00;1.00
25328;DHT22;13279;51.300;12.394;2023-05-18T04:35:29;7.00;1.00
25328;DHT22;13279;51.300;12.394;2023-05-18T04:37:57;7.00;1.00
25328;DHT22;13279;51.300;12.394;2023-05-18T04:40:25;7.00;1.00
25328;DHT22;13279;51.300;12.394;2023-05-18T04:42:55;7.00;1.00
25328;DHT22;13279;51.300;12.394;2023-05-18T04:45:27;7.10;1.00
25328;DHT22;13279;51.300;12.394;2023-05-18T04:47:56;7.10;1.00
25328;DHT22;13279;51.300;12.394;2023-05-18T04:50:32;7.20;1.00
25328;DHT22;13279;51.300;12.394;2023-05-18T04:53:04;7.20;1.00
25328;DHT22;13279;51.300;12.394;2023-05-18T04:55:34;7.20;1.00
25328;DHT22;13279;51.300;12.394;2023-05-18T04:58:08;7.20;1.00
25328;DHT22;13279;51.300;12.394;2023-05-18T05:00:36;7.30;1.00
25328;DHT22;13279;51.300;12.394;2023-05-18T05:03:03;7.40;1.00
25328;DHT22;13279;51.300;12.394;2023-05-18T05:05:33;7.40;1.00
25328;DHT22;13279;51.300;12.394;2023-05-18T05:08:01;7.40;1.00
25328;DHT22;13279;51.300;12.394;2023-05-18T05:10:31;7.50;1.00
25328;DHT22;13279;51.300;12.394;2023-05-18T05:12:59;7.50;1.00
25328;DHT22;13279;51.300;12.394;2023-05-18T05:15:28;7.50;1.00
25328;DHT22;13279;51.300;12.394;2023-05-18T05:17:57;7.50;1.00
25328;DHT22;13279;51.300;12.394;2023-05-18T05:20:25;7.60;1.00
25328;DHT22;13279;51.300;12.394;2023-05-18T05:22:53;7.70;1.00
25328;DHT22;13279;51.300;12.394;2023-05-18T05:25:24;7.70;1.00
25328;DHT22;13279;51.300;12.394;2023-05-18T05:27:52;7.90;1.00
25328;DHT22;13279;51.300;12.394;2023-05-18T05:30:21;8.00;1.00
25328;DHT22;13279;51.300;12.394;2023-05-18T05:32:51;8.10;1.00
25328;DHT22;13279;51.300;12.394;2023-05-18T05:35:19;8.20;1.00
25328;DHT22;13279;51.300;12.394;2023-05-18T05:37:47;8.30;1.00
25328;DHT22;13279;51.300;12.394;2023-05-18T05:40:15;8.40;1.00
25328;DHT22;13279;51.300;12.394;2023-05-18T05:42:46;8.50;1.00
25328;DHT22;13279;51.300;12.394;2023-05-18T05:45:13;8.60;1.00
25328;DHT22;13279;51.300;12.394;2023-05-18T05:47:51;8.70;1.00
25328;DHT22;13279;51.300;12.394;2023-05-18T05:50:21;8.70;1.00
25328;DHT22;13279;51.300;12.394;2023-05-18T05:52:50;8.80;1.00
25328;DHT22;13279;51.300;12.394;2023-05-18T05:55:20;9.00;1.00
25328;DHT22;13279;51.300;12.394;2023-05-18T05:57:49;9.10;1.00
25328;DHT22;13279;51.300;12.394;2023-05-18T06:00:17;9.20;1.00
25328;DHT22;13279;51.300;12.394;2023-05-18T06:02:52;9.30;1.00
25328;DHT22;13279;51.300;12.394;2023-05-18T06:05:28;9.40;1.00
25328;DHT22;13279;51.300;12.394;2023-05-18T06:07:56;9.50;1.00
25328;DHT22;13279;51.300;12.394;2023-05-18T06:10:23;9.60;99.90
25328;DHT22;13279;51.300;12.394;2023-05-18T06:12:52;9.70;99.90
25328;DHT22;13279;51.300;12.394;2023-05-18T06:15:24;9.90;99.90
25328;DHT22;13279;51.300;12.394;2023-05-18T06:17:53;10.00;99.90
25328;DHT22;13279;51.300;12.394;2023-05-18T06:20:21;10.00;99.90
25328;DHT22;13279;51.300;12.394;2023-05-18T06:22:49;10.30;99.90
25328;DHT22;13279;51.300;12.394;2023-05-18T06:25:29;10.20;99.90
25328;DHT22;13279;51.300;12.394;2023-05-18T06:28:09;10.10;99.90
25328;DHT22;13279;51.300;12.394;2023-05-18T06:30:45;10.20;99.90
25328;DHT22;13279;51.300;12.394;2023-05-18T06:33:42;10.40;99.90
25328;DHT22;13279;51.300;12.394;2023-05-18T06:36:11;10.60;99.90
25328;DHT22;13279;51.300;12.394;2023-05-18T06:38:38;10.60;99.90
25328;DHT22;13279;51.300;12.394;2023-05-18T06:41:06;10.70;99.90
25328;DHT22;13279;51.300;12.394;2023-05-18T06:43:33;10.90;99.90
25328;DHT22;13279;51.300;12.394;2023-05-18T06:46:19;10.90;1.00
25328;DHT22;13279;51.300;12.394;2023-05-18T06:48:50;11.00;1.00
25328;DHT22;13279;51.300;12.394;2023-05-18T06:51:18;11.20;1.00
25328;DHT22;13279;51.300;12.394;2023-05-18T06:53:46;11.40;1.00
25328;DHT22;13279;51.300;12.394;2023-05-18T06:56:13;11.60;1.00
25328;DHT22;13279;51.300;12.394;2023-05-18T06:58:43;11.60;1.00
25328;DHT22;13279;51.300;12.394;2023-05-18T07:01:11;11.70;1.00
25328;DHT22;13279;51.300;12.394;2023-05-18T07:03:38;11.90;1.00
25328;DHT22;13279;51.300;12.394;2023-05-18T07:06:07;12.00;1.00
25328;DHT22;13279;51.300;12.394;2023-05-18T07:08:34;12.00;1.00
25328;DHT22;13279;51.300;12.394;2023-05-18T07:11:02;12.10;1.00
25328;DHT22;13279;51.300;12.394;2023-05-18T07:13:29;12.40;1.00
25328;DHT22;13279;51.300;12.394;2023-05-18T07:15:57;12.60;99.90
25328;DHT22;13279;51.300;12.394;2023-05-18T07:18:26;12.70;99.90
25328;DHT22;13279;51.300;12.394;2023-05-18T07:20:53;12.60;99.90
25328;DHT22;13279;51.300;12.394;2023-05-18T07:23:22;12.60;99.90
25328;DHT22;13279;51.300;12.394;2023-05-18T07:25:50;12.70;99.90
25328;DHT22;13279;51.300;12.394;2023-05-18T07:28:18;12.80;99.90
25328;DHT22;13279;51.300;12.394;2023-05-18T07:30:45;13.00;1.00
25328;DHT22;13279;51.300;12.394;2023-05-18T07:33:12;12.90;1.00
25328;DHT22;13279;51.300;12.394;2023-05-18T07:35:39;13.00;1.00
25328;DHT22;13279;51.300;12.394;2023-05-18T07:38:06;13.30;1.00
25328;DHT22;13279;51.300;12.394;2023-05-18T07:40:35;13.60;1.00
25328;DHT22;13279;51.300;12.394;2023-05-18T07:43:03;13.80;99.90
25328;DHT22;13279;51.300;12.394;2023-05-18T07:45:30;13.90;27.80
25328;DHT22;13279;51.300;12.394;2023-05-18T07:47:57;13.90;1.00
25328;DHT22;13279;51.300;12.394;2023-05-18T07:50:25;13.90;43.10
25328;DHT22;13279;51.300;12.394;2023-05-18T07:52:54;14.10;99.90
25328;DHT22;13279;51.300;12.394;2023-05-18T07:55:21;14.10;99.90
25328;DHT22;13279;51.300;12.394;2023-05-18T07:57:50;14.10;99.90
25328;DHT22;13279;51.300;12.394;2023-05-18T08:00:18;14.30;99.90
25328;DHT22;13279;51.300;12.394;2023-05-18T08:02:46;14.20;99.90
25328;DHT22;13279;51.300;12.394;2023-05-18T08:05:14;14.10;99.90
25328;DHT22;13279;51.300;12.394;2023-05-18T08:07:42;14.30;99.90
25328;DHT22;13279;51.300;12.394;2023-05-18T08:10:10;14.20;99.90
25328;DHT22;13279;51.300;12.394;2023-05-18T08:12:37;14.10;99.90
25328;DHT22;13279;51.300;12.394;2023-05-18T08:15:08;14.20;99.90
25328;DHT22;13279;51.300;12.394;2023-05-18T08:17:35;14.50;99.90
25328;DHT22;13279;51.300;12.394;2023-05-18T08:20:03;14.70;99.90
25328;DHT22;13279;51.300;12.394;2023-05-18T08:22:31;14.80;99.90
25328;DHT22;13279;51.300;12.394;2023-05-18T08:24:59;14.80;99.90
25328;DHT22;13279;51.300;12.394;2023-05-18T08:27:27;14.60;99.90
25328;DHT22;13279;51.300;12.394;2023-05-18T08:29:54;14.60;99.90
25328;DHT22;13279;51.300;12.394;2023-05-18T08:32:23;14.50;99.90
25328;DHT22;13279;51.300;12.394;2023-05-18T08:34:51;14.70;99.90
25328;DHT22;13279;51.300;12.394;2023-05-18T08:37:19;14.90;99.90
25328;DHT22;13279;51.300;12.394;2023-05-18T08:39:47;15.10;99.90
25328;DHT22;13279;51.300;12.394;2023-05-18T08:42:20;14.90;99.90
25328;DHT22;13279;51.300;12.394;2023-05-18T08:44:53;15.00;99.90
25328;DHT22;13279;51.300;12.394;2023-05-18T08:47:26;15.20;99.90
25328;DHT22;13279;51.300;12.394;2023-05-18T08:49:55;15.10;99.90
25328;DHT22;13279;51.300;12.394;2023-05-18T08:52:24;15.20;99.90
25328;DHT22;13279;51.300;12.394;2023-05-18T08:54:53;15.50;99.90
25328;DHT22;13279;51.300;12.394;2023-05-18T08:57:25;15.80;99.90
25328;DHT22;13279;51.300;12.394;2023-05-18T08:59:55;15.50;99.90
25328;DHT22;13279;51.300;12.394;2023-05-18T09:02:26;15.70;99.90
25328;DHT22;13279;51.300;12.394;2023-05-18T09:04:55;15.40;99.90
25328;DHT22;13279;51.300;12.394;2023-05-18T09:07:23;15.30;99.90
25328;DHT22;13279;51.300;12.394;2023-05-18T09:09:54;15.30;99.90
25328;DHT22;13279;51.300;12.394;2023-05-18T09:12:23;15.20;99.90
25328;DHT22;13279;51.300;12.394;2023-05-18T09:14:50;14.90;99.90
25328;DHT22;13279;51.300;12.394;2023-05-18T09:17:19;14.50;99.90
25328;DHT22;13279;51.300;12.394;2023-05-18T09:19:49;14.40;99.90
25328;DHT22;13279;51.300;12.394;2023-05-18T09:22:17;14.10;99.90
25328;DHT22;13279;51.300;12.394;2023-05-18T09:24:44;14.00;99.90
25328;DHT22;13279;51.300;12.394;2023-05-18T09:27:12;14.20;99.90
25328;DHT22;13279;51.300;12.394;2023-05-18T09:29:51;14.30;99.90
25328;DHT22;13279;51.300;12.394;2023-05-18T09:32:19;14.40;99.90
25328;DHT22;13279;51.300;12.394;2023-05-18T09:34:46;14.50;99.90
25328;DHT22;13279;51.300;12.394;2023-05-18T09:37:17;14.60;99.90
25328;DHT22;13279;51.300;12.394;2023-05-18T09:39:57;14.90;99.90
25328;DHT22;13279;51.300;12.394;2023-05-18T09:42:34;15.20;99.90
25328;DHT22;13279;51.300;12.394;2023-05-18T09:45:03;15.40;99.90
25328;DHT22;13279;51.300;12.394;2023-05-18T09:47:32;15.80;99.90
25328;DHT22;13279;51.300;12.394;2023-05-18T09:50:00;15.90;99.90
25328;DHT22;13279;51.300;12.394;2023-05-18T09:52:29;15.60;99.90
25328;DHT22;13279;51.300;12.394;2023-05-18T09:54:58;15.40;99.90
25328;DHT22;13279;51.300;12.394;2023-05-18T09:57:26;15.30;99.90
25328;DHT22;13279;51.300;12.394;2023-05-18T10:00:03;15.00;99.90
25328;DHT22;13279;51.300;12.394;2023-05-18T10:02:37;14.90;99.90
25328;DHT22;13279;51.300;12.394;2023-05-18T10:05:05;14.90;99.90
25328;DHT22;13279;51.300;12.394;2023-05-18T10:07:35;15.20;99.90
25328;DHT22;13279;51.300;12.394;2023-05-18T10:10:03;15.70;99.90
25328;DHT22;13279;51.300;12.394;2023-05-18T10:12:30;16.10;99.90
25328;DHT22;13279;51.300;12.394;2023-05-18T10:14:58;16.50;99.90
25328;DHT22;13279;51.300;12.394;2023-05-18T10:17:26;16.40;99.90
25328;DHT22;13279;51.300;12.394;2023-05-18T10:19:55;16.50;99.90
25328;DHT22;13279;51.300;12.394;2023-05-18T10:22:25;16.50;99.90
25328;DHT22;13279;51.300;12.394;2023-05-18T10:24:56;16.30;99.90
25328;DHT22;13279;51.300;12.394;2023-05-18T10:27:26;16.20;99.90
25328;DHT22;13279;51.300;12.394;2023-05-18T10:29:56;16.00;99.90
25328;DHT22;13279;51.300;12.394;2023-05-18T10:32:25;16.30;99.90
25328;DHT22;13279;51.300;12.394;2023-05-18T10:34:56;16.00;99.90
25328;DHT22;13279;51.300;12.394;2023-05-18T10:37:26;15.70;99.90
25328;DHT22;13279;51.300;12.394;2023-05-18T10:39:58;15.70;99.90
25328;DHT22;13279;51.300;12.394;2023-05-18T10:42:29;15.90;99.90
25328;DHT22;13279;51.300;12.394;2023-05-18T10:44:56;16.10;99.90
25328;DHT22;13279;51.300;12.394;2023-05-18T10:47:26;15.90;99.90
25328;DHT22;13279;51.300;12.394;2023-05-18T10:49:54;15.50;99.90
25328;DHT22;13279;51.300;12.394;2023-05-18T10:52:25;15.60;99.90
25328;DHT22;13279;51.300;12.394;2023-05-18T10:54:58;15.40;99.90
25328;DHT22;13279;51.300;12.394;2023-05-18T10:57:31;15.20;99.90
25328;DHT22;13279;51.300;12.394;2023-05-18T10:59:59;15.30;99.90
25328;DHT22;13279;51.300;12.394;2023-05-18T11:02:27;15.50;99.90
25328;DHT22;13279;51.300;12.394;2023-05-18T11:04:56;15.60;99.90
25328;DHT22;13279;51.300;12.394;2023-05-18T11:07:23;15.50;99.90
25328;DHT22;13279;51.300;12.394;2023-05-18T11:09:54;15.90;99.90
25328;DHT22;13279;51.300;12.394;2023-05-18T11:12:22;16.60;99.90
25328;DHT22;13279;51.300;12.394;2023-05-18T11:14:51;16.60;99.90
25328;DHT22;13279;51.300;12.394;2023-05-18T11:17:19;16.60;99.90
25328;DHT22;13279;51.300;12.394;2023-05-18T11:20:12;16.60;99.90
25328;DHT22;13279;51.300;12.394;2023-05-18T11:22:46;17.10;99.90
25328;DHT22;13279;51.300;12.394;2023-05-18T11:25:36;17.40;99.90
25328;DHT22;13279;51.300;12.394;2023-05-18T11:28:07;17.40;99.90
25328;DHT22;13279;51.300;12.394;2023-05-18T11:30:49;17.20;99.90
25328;DHT22;13279;51.300;12.394;2023-05-18T11:33:22;16.70;99.90
25328;DHT22;13279;51.300;12.394;2023-05-18T11:36:00;16.60;99.90
25328;DHT22;13279;51.300;12.394;2023-05-18T11:38:44;16.40;99.90
25328;DHT22;13279;51.300;12.394;2023-05-18T11:41:32;16.10;99.90
25328;DHT22;13279;51.300;12.394;2023-05-18T11:44:19;15.90;99.90
25328;DHT22;13279;51.300;12.394;2023-05-18T11:46:51;16.10;99.90
25328;DHT22;13279;51.300;12.394;2023-05-18T11:49:21;16.40;99.90
25328;DHT22;13279;51.300;12.394;2023-05-18T11:52:01;16.40;99.90
25328;DHT22;13279;51.300;12.394;2023-05-18T11:54:42;16.80;99.90
25328;DHT22;13279;51.300;12.394;2023-05-18T11:57:13;17.10;99.90
25328;DHT22;13279;51.300;12.394;2023-05-18T11:59:43;17.00;99.90
25328;DHT22;13279;51.300;12.394;2023-05-18T12:02:17;17.30;99.90
25328;DHT22;13279;51.300;12.394;2023-05-18T12:04:46;17.20;99.90
25328;DHT22;13279;51.300;12.394;2023-05-18T12:07:13;17.30;99.90
25328;DHT22;13279;51.300;12.394;2023-05-18T12:09:42;17.30;99.90
25328;DHT22;13279;51.300;12.394;2023-05-18T12:12:11;17.10;99.90
25328;DHT22;13279;51.300;12.394;2023-05-18T12:14:42;16.90;99.90
25328;DHT22;13279;51.300;12.394;2023-05-18T12:17:10;17.20;99.90
25328;DHT22;13279;51.300;12.394;2023-05-18T12:19:41;17.10;99.90
25328;DHT22;13279;51.300;12.394;2023-05-18T12:22:09;17.20;99.90
25328;DHT22;13279;51.300;12.394;2023-05-18T12:24:37;17.40;99.90
25328;DHT22;13279;51.300;12.394;2023-05-18T12:27:06;17.60;99.90
25328;DHT22;13279;51.300;12.394;2023-05-18T12:29:37;17.60;99.90
25328;DHT22;13279;51.300;12.394;2023-05-18T12:32:08;17.70;99.90
25328;DHT22;13279;51.300;12.394;2023-05-18T12:34:36;17.70;99.90
25328;DHT22;13279;51.300;12.394;2023-05-18T12:37:05;17.60;99.90
25328;DHT22;13279;51.300;12.394;2023-05-18T12:39:33;17.50;99.90
25328;DHT22;13279;51.300;12.394;2023-05-18T12:42:11;17.40;99.90
25328;DHT22;13279;51.300;12.394;2023-05-18T12:44:41;17.00;99.90
25328;DHT22;13279;51.300;12.394;2023-05-18T12:47:11;16.80;99.90
25328;DHT22;13279;51.300;12.394;2023-05-18T12:49:41;16.90;99.90
25328;DHT22;13279;51.300;12.394;2023-05-18T12:52:11;16.70;99.90
25328;DHT22;13279;51.300;12.394;2023-05-18T12:54:53;16.80;99.90
25328;DHT22;13279;51.300;12.394;2023-05-18T12:57:25;16.70;99.90
25328;DHT22;13279;51.300;12.394;2023-05-18T12:59:56;17.10;99.90
25328;DHT22;13279;51.300;12.394;2023-05-18T13:02:30;17.20;99.90
25328;DHT22;13279;51.300;12.394;2023-05-18T13:05:05;17.10;99.90
25328;DHT22;13279;51.300;12.394;2023-05-18T13:07:38;17.00;99.90
25328;DHT22;13279;51.300;12.394;2023-05-18T13:10:08;17.60;99.90
25328;DHT22;13279;51.300;12.394;2023-05-18T13:12:43;18.40;99.90
25328;DHT22;13279;51.300;12.394;2023-05-18T13:15:13;18.70;99.90
25328;DHT22;13279;51.300;12.394;2023-05-18T13:17:54;18.10;99.90
25328;DHT22;13279;51.300;12.394;2023-05-18T13:20:24;17.90;99.90
25328;DHT22;13279;51.300;12.394;2023-05-18T13:22:55;18.20;99.90
25328;DHT22;13279;51.300;12.394;2023-05-18T13:25:24;18.10;99.90
25328;DHT22;13279;51.300;12.394;2023-05-18T13:27:52;18.00;99.90
25328;DHT22;13279;51.300;12.394;2023-05-18T13:30:21;18.30;99.90
25328;DHT22;13279;51.300;12.394;2023-05-18T13:32:50;18.90;99.90
25328;DHT22;13279;51.300;12.394;2023-05-18T13:35:18;18.70;99.90
25328;DHT22;13279;51.300;12.394;2023-05-18T13:37:46;18.60;99.90
25328;DHT22;13279;51.300;12.394;2023-05-18T13:40:14;18.70;99.90
25328;DHT22;13279;51.300;12.394;2023-05-18T13:42:42;19.20;99.90
25328;DHT22;13279;51.300;12.394;2023-05-18T13:45:10;19.10;99.90
25328;DHT22;13279;51.300;12.394;2023-05-18T13:47:39;19.60;99.90
25328;DHT22;13279;51.300;12.394;2023-05-18T13:50:08;20.00;99.90
25328;DHT22;13279;51.300;12.394;2023-05-18T13:52:36;19.50;99.90
25328;DHT22;13279;51.300;12.394;2023-05-18T13:55:06;19.10;99.90
25328;DHT22;13279;51.300;12.394;2023-05-18T13:57:34;18.90;99.90
25328;DHT22;13279;51.300;12.394;2023-05-18T14:00:02;18.70;99.90
25328;DHT22;13279;51.300;12.394;2023-05-18T14:02:38;18.80;99.90
25328;DHT22;13279;51.300;12.394;2023-05-18T14:05:08;18.60;99.90
25328;DHT22;13279;51.300;12.394;2023-05-18T14:07:36;18.30;99.90
25328;DHT22;13279;51.300;12.394;2023-05-18T14:10:04;17.90;99.90
25328;DHT22;13279;51.300;12.394;2023-05-18T14:12:32;17.50;99.90
25328;DHT22;13279;51.300;12.394;2023-05-18T14:15:01;17.50;99.90
25328;DHT22;13279;51.300;12.394;2023-05-18T14:17:28;17.60;99.90
25328;DHT22;13279;51.300;12.394;2023-05-18T14:19:56;18.10;99.90
25328;DHT22;13279;51.300;12.394;2023-05-18T14:22:25;18.20;99.90
25328;DHT22;13279;51.300;12.394;2023-05-18T14:24:53;18.40;99.90
25328;DHT22;13279;51.300;12.394;2023-05-18T14:27:20;18.60;99.90
25328;DHT22;13279;51.300;12.394;2023-05-18T14:29:48;18.30;99.90
25328;DHT22;13279;51.300;12.394;2023-05-18T14:32:16;18.00;99.90
25328;DHT22;13279;51.300;12.394;2023-05-18T14:34:45;17.80;99.90
25328;DHT22;13279;51.300;12.394;2023-05-18T14:37:13;17.80;99.90
25328;DHT22;13279;51.300;12.394;2023-05-18T14:39:42;17.80;99.90
25328;DHT22;13279;51.300;12.394;2023-05-18T14:42:09;17.60;99.90
25328;DHT22;13279;51.300;12.394;2023-05-18T14:44:37;17.70;99.90
25328;DHT22;13279;51.300;12.394;2023-05-18T14:47:04;18.20;99.90
25328;DHT22;13279;51.300;12.394;2023-05-18T14:49:32;18.90;99.90
25328;DHT22;13279;51.300;12.394;2023-05-18T14:51:59;19.60;99.90
25328;DHT22;13279;51.300;12.394;2023-05-18T14:54:27;19.70;99.90
25328;DHT22;13279;51.300;12.394;2023-05-18T14:56:56;19.70;99.90
25328;DHT22;13279;51.300;12.394;2023-05-18T14:59:25;19.50;99.90
25328;DHT22;13279;51.300;12.394;2023-05-18T15:01:52;20.20;99.90
25328;DHT22;13279;51.300;12.394;2023-05-18T15:04:19;20.50;99.90
25328;DHT22;13279;51.300;12.394;2023-05-18T15:06:47;19.70;99.90
25328;DHT22;13279;51.300;12.394;2023-05-18T15:09:16;19.40;99.90
25328;DHT22;13279;51.300;12.394;2023-05-18T15:11:43;19.40;99.90
25328;DHT22;13279;51.300;12.394;2023-05-18T15:14:13;19.50;99.90
25328;DHT22;13279;51.300;12.394;2023-05-18T15:16:40;19.10;99.90
25328;DHT22;13279;51.300;12.394;2023-05-18T15:19:07;18.40;99.90
25328;DHT22;13279;51.300;12.394;2023-05-18T15:21:35;17.90;99.90
25328;DHT22;13279;51.300;12.394;2023-05-18T15:24:02;17.70;99.90
25328;DHT22;13279;51.300;12.394;2023-05-18T15:26:29;17.60;99.90
25328;DHT22;13279;51.300;12.394;2023-05-18T15:28:57;17.60;99.90
25328;DHT22;13279;51.300;12.394;2023-05-18T15:31:26;17.50;99.90
25328;DHT22;13279;51.300;12.394;2023-05-18T15:33:53;17.60;99.90
25328;DHT22;13279;51.300;12.394;2023-05-18T15:36:20;17.60;99.90
25328;DHT22;13279;51.300;12.394;2023-05-18T15:38:48;17.30;99.90
25328;DHT22;13279;51.300;12.394;2023-05-18T15:41:15;17.40;99.90
25328;DHT22;13279;51.300;12.394;2023-05-18T15:43:44;17.30;99.90
25328;DHT22;13279;51.300;12.394;2023-05-18T15:46:11;17.60;99.90
25328;DHT22;13279;51.300;12.394;2023-05-18T15:48:40;18.10;99.90